This is the latest recevied weather packets stored in our database for station/object DJ5NF-10. If no packets are shown the sender has not sent any weather packets the latest 10 day(s).
| Time | Temp. | Humidity | Pressure | Rain* | Wind** | Luminosity | Snow |
|---|---|---|---|---|---|---|---|
| 1777651888 | 25.56° C | 27% | 1017.7 hPa | - | - | - | - |
| 1777649187 | 25.56° C | 27% | 1018 hPa | - | - | - | - |
| 1777646487 | 25° C | 26% | 1018.5 hPa | - | - | - | - |
| 1777643787 | 25° C | 26% | 1018.8 hPa | - | - | - | - |
| 1777641087 | 24.44° C | 26% | 1019.4 hPa | - | - | - | - |
| 1777638387 | 24.44° C | 26% | 1020 hPa | - | - | - | - |
| 1777635687 | 23.89° C | 26% | 1020.6 hPa | - | - | - | - |
| 1777632986 | 23.33° C | 26% | 1021.1 hPa | - | - | - | - |
| 1777630286 | 22.22° C | 26% | 1021.6 hPa | - | - | - | - |
| 1777627590 | 21.67° C | 26% | 1022.1 hPa | - | - | - | - |
| 1777624890 | 21.67° C | 26% | 1022.4 hPa | - | - | - | - |
| 1777619489 | 20.56° C | 27% | 1022.6 hPa | - | - | - | - |
| 1777616789 | 20° C | 27% | 1022.7 hPa | - | - | - | - |
| 1777614089 | 20° C | 27% | 1022.7 hPa | - | - | - | - |
| 1777611388 | 20.56° C | 28% | 1022.6 hPa | - | - | - | - |
| 1777608688 | 20.56° C | 27% | 1022.3 hPa | - | - | - | - |
| 1777603288 | 21.11° C | 27% | 1022.4 hPa | - | - | - | - |
| 1777600588 | 21.11° C | 27% | 1022.2 hPa | - | - | - | - |
| 1777597888 | 21.67° C | 27% | 1022.3 hPa | - | - | - | - |
| 1777595188 | 21.67° C | 27% | 1022.2 hPa | - | - | - | - |
| 1777592488 | 22.22° C | 27% | 1022.4 hPa | - | - | - | - |
| 1777589788 | 22.22° C | 27% | 1022.6 hPa | - | - | - | - |
| 1777587088 | 22.78° C | 27% | 1022.5 hPa | - | - | - | - |
| 1777584388 | 22.78° C | 27% | 1022.5 hPa | - | - | - | - |
| 1777581688 | 22.78° C | 28% | 1022.3 hPa | - | - | - | - |
* Rain since midnight (hover to see other rain measurements)
** Current wind speed in m/s (hover to see current wind gust speed)